createdAt,value
2019-04-25T00:01:26.810Z,85.30
2019-04-25T00:03:57.291Z,85.30
2019-04-25T00:06:29.875Z,85.50
2019-04-25T00:09:01.904Z,85.60
2019-04-25T00:11:34.779Z,85.70
2019-04-25T00:14:06.749Z,85.80
2019-04-25T00:16:39.489Z,85.80
2019-04-25T00:19:11.662Z,86.30
2019-04-25T00:22:02.019Z,86.50
2019-04-25T00:24:42.969Z,86.50
2019-04-25T00:27:13.529Z,86.50
2019-04-25T00:29:45.718Z,86.60
2019-04-25T00:32:16.291Z,87.30
2019-04-25T00:34:46.939Z,86.50
2019-04-25T00:37:17.413Z,86.70
2019-04-25T00:39:47.887Z,86.50
2019-04-25T00:42:18.283Z,86.80
2019-04-25T00:44:49.587Z,86.90
2019-04-25T00:47:21.578Z,86.90
2019-04-25T00:49:53.213Z,87.40
2019-04-25T00:52:23.736Z,87.20
2019-04-25T00:54:54.304Z,87.40
2019-04-25T00:57:25.299Z,87.80
2019-04-25T01:00:11.607Z,87.90
2019-04-25T01:02:45.710Z,87.80
2019-04-25T01:05:16.192Z,87.80
2019-04-25T01:07:47.705Z,88.20
2019-04-25T01:10:18.389Z,88.10
2019-04-25T01:12:48.846Z,88.70
2019-04-25T01:15:21.445Z,88.40
2019-04-25T01:17:52.594Z,88.70
2019-04-25T01:20:24.040Z,89.00
2019-04-25T01:22:56.944Z,89.10
2019-04-25T01:25:38.357Z,89.00
2019-04-25T01:27:58.777Z,89.00
2019-04-25T01:30:29.419Z,88.90
2019-04-25T01:32:59.853Z,89.00
2019-04-25T01:35:49.376Z,89.10
2019-04-25T01:38:34.882Z,88.80
2019-04-25T01:41:24.714Z,89.10
2019-04-25T01:43:59.674Z,89.40
2019-04-25T01:46:30.464Z,89.90
2019-04-25T01:49:00.904Z,89.70
2019-04-25T01:51:31.613Z,90.10
2019-04-25T01:54:02.036Z,90.10
2019-04-25T01:56:33.260Z,90.20
2019-04-25T01:59:03.996Z,90.50
2019-04-25T02:01:35.603Z,90.50
2019-04-25T02:04:06.076Z,90.90
2019-04-25T02:06:36.951Z,91.10
2019-04-25T02:09:10.469Z,91.30
2019-04-25T02:11:58.930Z,91.40
2019-04-25T02:14:29.644Z,91.50
2019-04-25T02:17:00.378Z,91.60
2019-04-25T02:19:31.013Z,91.80
2019-04-25T02:22:02.474Z,92.10
2019-04-25T02:24:33.978Z,92.10
2019-04-25T02:27:04.756Z,92.20
2019-04-25T02:29:35.291Z,92.40
2019-04-25T02:32:08.936Z,92.70
2019-04-25T02:34:38.887Z,92.80
2019-04-25T02:37:09.778Z,93.00
2019-04-25T02:39:50.182Z,93.10
2019-04-25T02:42:21.363Z,93.30
2019-04-25T02:45:02.304Z,93.30
2019-04-25T02:47:50.738Z,93.40
2019-04-25T02:50:37.899Z,93.50
2019-04-25T02:53:34.483Z,93.60
2019-04-25T02:56:25.728Z,93.70
2019-04-25T02:58:37.704Z,93.70
2019-04-25T03:01:19.534Z,93.70
2019-04-25T03:03:45.088Z,93.90
2019-04-25T03:06:15.625Z,93.90
2019-04-25T03:08:46.243Z,94.10
2019-04-25T03:11:17.963Z,94.10
2019-04-25T03:13:48.582Z,94.00
2019-04-25T03:16:19.635Z,94.20
2019-04-25T03:22:00.272Z,94.10
2019-04-25T03:24:30.750Z,94.10
2019-04-25T03:27:01.417Z,94.20
2019-04-25T03:29:34.214Z,94.40
2019-04-25T03:32:09.291Z,94.40
2019-04-25T03:34:37.031Z,94.50
2019-04-25T03:37:07.754Z,94.50
2019-04-25T03:39:38.376Z,94.60
2019-04-25T03:42:09.850Z,94.60
2019-04-25T03:44:40.615Z,94.60
2019-04-25T03:47:11.590Z,94.60
2019-04-25T03:49:43.334Z,94.70
2019-04-25T03:52:14.278Z,94.70
2019-04-25T03:54:46.110Z,94.80
2019-04-25T03:57:16.529Z,94.90
2019-04-25T03:59:48.055Z,95.00
2019-04-25T04:02:18.770Z,94.90
2019-04-25T04:04:49.277Z,94.90
2019-04-25T04:07:20.059Z,95.00
2019-04-25T04:09:50.748Z,95.20
2019-04-25T04:12:24.163Z,95.10
2019-04-25T04:14:54.891Z,95.30
2019-04-25T04:17:50.631Z,95.30
2019-04-25T04:20:46.246Z,95.10
2019-04-25T04:23:25.150Z,94.90
2019-04-25T04:25:55.583Z,95.20
2019-04-25T04:28:26.203Z,95.20
2019-04-25T04:30:56.756Z,95.10
2019-04-25T04:33:32.863Z,95.30
2019-04-25T04:36:03.864Z,95.20
2019-04-25T04:38:34.857Z,95.10
2019-04-25T04:41:05.280Z,95.10
2019-04-25T04:43:36.225Z,95.10
2019-04-25T04:46:07.916Z,95.10
2019-04-25T04:48:39.639Z,95.10
2019-04-25T04:51:10.552Z,95.10
2019-04-25T04:53:41.219Z,95.40
2019-04-25T04:56:11.978Z,95.40
2019-04-25T04:58:43.164Z,95.30
2019-04-25T05:01:15.870Z,95.10
2019-04-25T05:04:18.056Z,95.00
2019-04-25T05:07:03.650Z,95.10
2019-04-25T05:09:34.142Z,95.00
2019-04-25T05:12:05.058Z,95.00
2019-04-25T05:14:35.812Z,94.90
2019-04-25T05:17:06.286Z,94.60
2019-04-25T05:19:36.850Z,94.60
2019-04-25T05:22:07.547Z,94.50
2019-04-25T05:24:38.326Z,94.30
2019-04-25T05:27:08.980Z,94.30
2019-04-25T05:29:39.546Z,94.40
2019-04-25T05:32:10.395Z,94.50
2019-04-25T05:34:40.877Z,94.00
2019-04-25T05:37:11.302Z,93.90
2019-04-25T05:39:43.389Z,93.60
2019-04-25T05:42:23.022Z,93.50
2019-04-25T05:44:56.197Z,93.30
2019-04-25T05:47:27.209Z,93.00
2019-04-25T05:49:57.696Z,92.60
2019-04-25T05:52:28.348Z,92.50
2019-04-25T05:54:58.865Z,92.20
2019-04-25T05:57:29.294Z,91.80
2019-04-25T06:00:00.032Z,91.60
2019-04-25T06:02:30.605Z,91.70
2019-04-25T06:05:01.446Z,91.70
2019-04-25T06:07:33.260Z,91.80
2019-04-25T06:10:21.821Z,91.80
2019-04-25T06:13:11.322Z,91.90
2019-04-25T06:15:43.812Z,91.50
2019-04-25T06:18:43.884Z,91.60
2019-04-25T06:21:15.713Z,91.70
2019-04-25T06:24:05.245Z,91.40
2019-04-25T06:26:43.342Z,91.00
2019-04-25T06:29:13.787Z,90.80
2019-04-25T06:31:44.259Z,90.90
2019-04-25T06:34:14.969Z,90.30
2019-04-25T06:36:45.506Z,90.60
2019-04-25T06:39:16.217Z,90.50
2019-04-25T06:41:46.620Z,90.50
2019-04-25T06:44:34.613Z,90.70
2019-04-25T06:47:35.134Z,90.70
2019-04-25T06:50:06.328Z,90.80
2019-04-25T06:52:37.188Z,90.40
2019-04-25T06:55:08.268Z,89.90
2019-04-25T06:57:38.945Z,89.60
2019-04-25T07:00:11.637Z,90.10
2019-04-25T07:02:43.553Z,89.70
2019-04-25T07:05:25.794Z,89.70
2019-04-25T07:07:47.064Z,89.90
2019-04-25T07:10:17.980Z,89.40
2019-04-25T07:12:48.460Z,89.00
2019-04-25T07:15:26.949Z,89.90
2019-04-25T07:17:58.980Z,88.80
2019-04-25T07:20:30.235Z,88.10
2019-04-25T07:23:00.966Z,88.30
2019-04-25T07:25:35.765Z,88.20
2019-04-25T07:28:30.233Z,87.90
2019-04-25T07:31:13.322Z,87.20
2019-04-25T07:33:59.529Z,87.20
2019-04-25T07:36:30.999Z,87.50
2019-04-25T07:39:09.722Z,86.60
2019-04-25T07:41:38.086Z,85.70
2019-04-25T07:44:08.288Z,85.40
2019-04-25T07:46:39.907Z,85.30
2019-04-25T07:49:13.399Z,84.70
2019-04-25T07:51:45.345Z,85.30
2019-04-25T07:54:16.279Z,84.20
2019-04-25T07:56:46.931Z,83.50
2019-04-25T07:59:17.523Z,83.40
2019-04-25T08:01:48.119Z,83.20
2019-04-25T08:04:18.601Z,83.00
2019-04-25T08:06:49.237Z,83.00
2019-04-25T08:09:19.907Z,83.00
2019-04-25T08:11:50.649Z,83.00
2019-04-25T08:14:58.796Z,82.10
2019-04-25T08:17:47.446Z,82.60
2019-04-25T08:20:19.918Z,82.10
2019-04-25T08:22:58.324Z,82.10
2019-04-25T08:25:23.618Z,83.00
2019-04-25T08:27:55.219Z,82.80
2019-04-25T08:30:25.762Z,83.10
2019-04-25T08:32:56.527Z,82.50
2019-04-25T08:35:26.938Z,82.70
2019-04-25T08:37:57.958Z,83.40
2019-04-25T08:40:32.376Z,83.20
2019-04-25T08:43:03.524Z,83.00
2019-04-25T08:45:35.690Z,82.50
2019-04-25T08:48:06.814Z,82.10
2019-04-25T08:50:58.610Z,81.30
2019-04-25T08:53:35.624Z,80.70
2019-04-25T08:56:15.172Z,82.40
2019-04-25T08:59:07.817Z,80.90
2019-04-25T09:01:57.787Z,80.90
2019-04-25T09:04:49.980Z,80.70
2019-04-25T09:07:20.664Z,80.90
2019-04-25T09:09:51.569Z,80.40
2019-04-25T09:12:22.051Z,79.90
2019-04-25T09:14:54.083Z,79.30
2019-04-25T09:17:24.827Z,80.40
2019-04-25T09:19:55.301Z,80.60
2019-04-25T09:22:25.795Z,79.20
2019-04-25T09:24:56.473Z,78.40
2019-04-25T09:27:26.894Z,78.10
2019-04-25T09:29:57.373Z,77.90
2019-04-25T09:32:27.966Z,77.90
2019-04-25T09:34:58.375Z,77.40
2019-04-25T09:37:28.847Z,77.50
2019-04-25T09:40:18.279Z,77.00
2019-04-25T09:42:48.799Z,77.30
2019-04-25T09:45:43.892Z,76.00
2019-04-25T09:48:24.015Z,75.20
2019-04-25T09:51:19.280Z,75.60
2019-04-25T09:53:54.188Z,75.00
2019-04-25T09:56:33.801Z,75.40
2019-04-25T09:59:10.515Z,75.10
2019-04-25T10:01:43.979Z,74.30
2019-04-25T10:04:14.649Z,74.60
2019-04-25T10:06:46.026Z,74.40
2019-04-25T10:09:16.811Z,74.00
2019-04-25T10:11:47.522Z,74.10
2019-04-25T10:15:11.456Z,72.70
2019-04-25T10:17:43.537Z,72.60
2019-04-25T10:20:16.317Z,72.10
2019-04-25T10:22:47.116Z,72.50
2019-04-25T10:25:18.760Z,72.10
2019-04-25T10:27:49.420Z,71.70
2019-04-25T10:30:23.517Z,71.20
2019-04-25T10:32:54.629Z,71.10
2019-04-25T10:35:24.757Z,71.80
2019-04-25T10:37:55.498Z,71.60
2019-04-25T10:40:28.049Z,71.60
2019-04-25T10:42:58.829Z,70.20
2019-04-25T10:45:29.327Z,69.80
2019-04-25T10:47:59.906Z,67.70
2019-04-25T10:50:30.506Z,68.20
2019-04-25T10:53:01.175Z,68.50
2019-04-25T10:55:31.927Z,67.70
2019-04-25T10:58:03.879Z,67.80
2019-04-25T11:00:37.543Z,68.20
2019-04-25T11:03:26.527Z,67.10
2019-04-25T11:05:57.362Z,65.60
2019-04-25T11:08:28.017Z,66.60
2019-04-25T11:10:59.685Z,65.00
2019-04-25T11:13:30.540Z,65.90
2019-04-25T11:16:01.275Z,66.10
2019-04-25T11:18:33.905Z,65.10
2019-04-25T11:21:06.105Z,64.50
2019-04-25T11:23:36.839Z,62.90
2019-04-25T11:26:07.323Z,63.10
2019-04-25T11:28:38.342Z,63.50
2019-04-25T11:31:11.803Z,63.30
2019-04-25T11:33:43.868Z,62.10
2019-04-25T11:36:15.911Z,61.60
2019-04-25T11:39:19.256Z,62.70
2019-04-25T11:41:49.870Z,60.30
2019-04-25T11:44:20.491Z,59.80
2019-04-25T11:46:50.936Z,60.30
2019-04-25T11:49:21.484Z,60.80
2019-04-25T11:51:52.442Z,59.60
2019-04-25T11:54:24.279Z,59.00
2019-04-25T11:56:56.455Z,58.70
2019-04-25T11:59:27.063Z,58.40
2019-04-25T12:01:57.718Z,56.80
2019-04-25T12:04:28.154Z,56.20
2019-04-25T12:06:58.607Z,55.40
2019-04-25T12:09:29.279Z,53.90
2019-04-25T12:11:59.920Z,53.20
2019-04-25T12:14:31.685Z,52.20
2019-04-25T12:17:03.757Z,52.00
2019-04-25T12:19:37.902Z,51.40
2019-04-25T12:22:07.354Z,51.90
2019-04-25T12:24:37.877Z,50.60
2019-04-25T12:27:08.677Z,48.70
2019-04-25T12:29:39.205Z,48.60
2019-04-25T12:32:10.190Z,47.50
2019-04-25T12:34:41.681Z,43.20
2019-04-25T12:37:12.541Z,41.40
2019-04-25T12:39:42.927Z,40.70
2019-04-25T12:42:14.635Z,38.60
2019-04-25T12:45:04.190Z,36.70
2019-04-25T12:47:36.305Z,35.70
2019-04-25T12:50:06.952Z,35.20
2019-04-25T12:52:37.371Z,34.60
2019-04-25T12:55:09.619Z,34.10
2019-04-25T12:57:40.139Z,33.70
2019-04-25T13:00:14.037Z,32.50
2019-04-25T13:02:44.956Z,31.60
2019-04-25T13:05:15.734Z,31.10
2019-04-25T13:07:46.353Z,31.00
2019-04-25T13:10:17.366Z,31.00
2019-04-25T13:12:47.854Z,31.10
2019-04-25T13:15:18.552Z,31.30
2019-04-25T13:17:49.040Z,30.40
2019-04-25T13:20:19.582Z,30.60
2019-04-25T13:22:50.150Z,30.50
2019-04-25T13:25:23.858Z,31.10
2019-04-25T13:28:12.275Z,30.40
2019-04-25T13:31:10.372Z,30.60
2019-04-25T13:33:57.356Z,30.90
2019-04-25T13:36:28.336Z,31.50
2019-04-25T13:38:58.771Z,32.00
2019-04-25T13:41:29.649Z,32.70
2019-04-25T13:44:00.901Z,33.20
2019-04-25T13:46:32.622Z,33.60
2019-04-25T13:49:04.242Z,33.80
2019-04-25T13:51:35.075Z,34.70
2019-04-25T13:54:05.865Z,35.30
2019-04-25T13:56:40.370Z,34.70
2019-04-25T13:59:09.487Z,35.30
2019-04-25T14:01:41.215Z,34.50
2019-04-25T14:04:12.105Z,34.10
2019-04-25T14:06:42.635Z,33.10
2019-04-25T14:09:18.143Z,32.80
2019-04-25T14:11:49.289Z,32.30
2019-04-25T14:14:20.369Z,32.30
2019-04-25T14:17:06.653Z,32.80
2019-04-25T14:19:55.508Z,33.80
2019-04-25T14:22:27.485Z,33.60
2019-04-25T14:24:58.303Z,33.60
2019-04-25T14:27:30.106Z,34.10
2019-04-25T14:30:03.749Z,33.80
2019-04-25T14:32:36.528Z,33.50
2019-04-25T14:35:07.192Z,34.00
2019-04-25T14:37:39.601Z,34.80
2019-04-25T14:40:13.923Z,35.20
2019-04-25T14:42:45.052Z,36.30
2019-04-25T14:45:16.122Z,35.60
2019-04-25T14:47:47.054Z,36.10
2019-04-25T14:50:18.020Z,36.10
2019-04-25T14:52:49.384Z,35.50
2019-04-25T14:55:32.581Z,36.20
2019-04-25T14:58:04.295Z,37.80
2019-04-25T15:00:39.340Z,39.60
2019-04-25T15:03:10.406Z,39.60
2019-04-25T15:05:43.201Z,39.60
2019-04-25T15:08:13.903Z,39.50
2019-04-25T15:10:44.637Z,40.00
2019-04-25T15:13:15.091Z,41.40
2019-04-25T15:15:45.832Z,42.60
2019-04-25T15:18:16.828Z,42.90
2019-04-25T15:20:47.817Z,43.60
2019-04-25T15:23:18.797Z,45.10
2019-04-25T15:25:49.413Z,45.60
2019-04-25T15:28:20.041Z,45.90
2019-04-25T15:30:51.173Z,46.60
2019-04-25T15:33:24.170Z,47.20
2019-04-25T15:36:07.988Z,48.10
2019-04-25T15:38:47.767Z,49.10
2019-04-25T15:41:29.285Z,50.00
2019-04-25T15:44:18.961Z,50.50
2019-04-25T15:46:51.405Z,50.90
2019-04-25T15:49:21.949Z,50.60
2019-04-25T15:51:52.778Z,50.80
2019-04-25T15:54:23.451Z,51.40
2019-04-25T15:56:53.975Z,51.10
2019-04-25T15:59:25.112Z,51.10
2019-04-25T16:02:07.475Z,50.10
2019-04-25T16:04:28.255Z,49.00
2019-04-25T16:06:59.077Z,47.60
2019-04-25T16:09:29.847Z,46.60
2019-04-25T16:12:00.926Z,45.70
2019-04-25T16:14:31.878Z,45.00
2019-04-25T16:17:02.616Z,44.50
2019-04-25T16:19:34.705Z,44.60
2019-04-25T16:22:05.575Z,44.40
2019-04-25T16:24:36.694Z,44.60
2019-04-25T16:27:09.245Z,44.60
2019-04-25T16:29:40.658Z,45.20
2019-04-25T16:32:20.426Z,46.40
2019-04-25T16:34:46.857Z,47.40
2019-04-25T16:37:17.575Z,48.50
2019-04-25T16:39:48.119Z,49.40
2019-04-25T16:42:18.918Z,50.30
2019-04-25T16:44:50.000Z,51.10
2019-04-25T16:47:22.615Z,51.70
2019-04-25T16:49:53.418Z,52.20
2019-04-25T16:52:25.089Z,52.80
2019-04-25T16:54:55.687Z,53.00
2019-04-25T16:57:26.693Z,53.60
2019-04-25T16:59:57.165Z,54.10
2019-04-25T17:02:35.293Z,54.90
2019-04-25T17:05:04.093Z,55.30
2019-04-25T17:07:34.780Z,55.50
2019-04-25T17:10:07.055Z,55.40
2019-04-25T17:12:38.471Z,55.40
2019-04-25T17:15:19.407Z,55.80
2019-04-25T17:17:57.749Z,56.30
2019-04-25T17:20:31.004Z,56.60
2019-04-25T17:23:01.785Z,57.10
2019-04-25T17:25:32.429Z,57.10
2019-04-25T17:28:03.216Z,57.50
2019-04-25T17:30:35.396Z,57.60
2019-04-25T17:33:25.902Z,57.60
2019-04-25T17:36:13.590Z,58.00
2019-04-25T17:38:47.808Z,58.40
2019-04-25T17:41:18.341Z,58.40
2019-04-25T17:43:49.326Z,58.80
2019-04-25T17:46:21.716Z,58.90
2019-04-25T17:48:52.418Z,59.00
2019-04-25T17:51:23.490Z,59.70
2019-04-25T17:53:54.057Z,59.30
2019-04-25T17:56:38.577Z,59.70
2019-04-25T17:59:10.290Z,61.80
2019-04-25T18:01:42.201Z,63.10
2019-04-25T18:04:12.836Z,63.60
2019-04-25T18:06:44.353Z,64.10
2019-04-25T18:09:15.188Z,63.60
2019-04-25T18:11:46.339Z,63.80
2019-04-25T18:14:17.507Z,63.00
2019-04-25T18:16:49.343Z,63.00
2019-04-25T18:19:51.367Z,63.10
2019-04-25T18:22:46.220Z,63.20
2019-04-25T18:25:31.526Z,63.20
2019-04-25T18:28:27.162Z,63.20
2019-04-25T18:30:58.709Z,63.20
2019-04-25T18:33:30.260Z,63.60
2019-04-25T18:36:22.827Z,64.00
2019-04-25T18:39:04.055Z,64.00
2019-04-25T18:41:41.834Z,64.40
2019-04-25T18:44:12.718Z,64.60
2019-04-25T18:46:45.147Z,64.80
2019-04-25T18:49:16.129Z,64.90
2019-04-25T18:51:56.680Z,65.50
2019-04-25T18:54:47.678Z,65.50
2019-04-25T18:57:37.532Z,65.90
2019-04-25T19:00:26.664Z,65.90
2019-04-25T19:03:28.436Z,66.20
2019-04-25T19:06:01.913Z,66.50
2019-04-25T19:08:33.844Z,66.70
2019-04-25T19:11:06.079Z,67.00
2019-04-25T19:13:36.965Z,67.50
2019-04-25T19:16:07.889Z,67.90
2019-04-25T19:18:39.018Z,68.20
2019-04-25T19:21:10.662Z,68.60
2019-04-25T19:23:41.816Z,68.70
2019-04-25T19:26:12.480Z,69.20
2019-04-25T19:28:43.534Z,69.30
2019-04-25T19:31:14.208Z,70.00
2019-04-25T19:33:45.470Z,70.80
2019-04-25T19:36:16.314Z,70.80
2019-04-25T19:38:47.962Z,71.00
2019-04-25T19:41:43.511Z,71.40
2019-04-25T19:44:21.177Z,71.30
2019-04-25T19:46:52.421Z,71.90
2019-04-25T19:49:23.242Z,71.90
2019-04-25T19:51:54.956Z,72.00
2019-04-25T19:54:25.816Z,72.50
2019-04-25T19:56:56.500Z,73.10
2019-04-25T19:59:29.694Z,73.30
2019-04-25T20:02:05.919Z,73.30
2019-04-25T20:05:07.648Z,73.80
2019-04-25T20:07:45.516Z,74.10
2019-04-25T20:10:44.034Z,74.80
2019-04-25T20:13:16.047Z,75.30
2019-04-25T20:15:47.590Z,75.40
2019-04-25T20:18:18.679Z,75.40
2019-04-25T20:20:50.074Z,75.90
2019-04-25T20:23:20.916Z,76.20
2019-04-25T20:25:52.754Z,76.50
2019-04-25T20:28:23.796Z,76.50
2019-04-25T20:30:54.611Z,76.50
2019-04-25T20:33:25.113Z,76.70
2019-04-25T20:35:55.996Z,77.20
2019-04-25T20:38:26.558Z,77.20
2019-04-25T20:40:57.432Z,77.10
2019-04-25T20:43:28.103Z,77.30
2019-04-25T20:45:58.756Z,77.10
2019-04-25T20:48:29.342Z,78.00
2019-04-25T20:51:00.014Z,78.80
2019-04-25T20:53:30.800Z,79.00
2019-04-25T20:56:01.423Z,79.20
2019-04-25T20:58:32.031Z,80.10
2019-04-25T21:01:03.537Z,80.50
2019-04-25T21:03:34.640Z,80.30
2019-04-25T21:06:10.999Z,80.60
2019-04-25T21:08:42.106Z,80.70
2019-04-25T21:11:12.703Z,80.90
2019-04-25T21:14:01.473Z,81.70
2019-04-25T21:17:10.227Z,81.90
2019-04-25T21:19:43.538Z,82.00
2019-04-25T21:22:14.253Z,82.20
2019-04-25T21:24:46.399Z,82.40
2019-04-25T21:27:16.880Z,83.00
2019-04-25T21:29:47.713Z,83.40
2019-04-25T21:32:20.139Z,83.40
2019-04-25T21:34:50.940Z,83.60
2019-04-25T21:37:22.720Z,84.20
2019-04-25T21:40:18.701Z,84.40
2019-04-25T21:42:53.898Z,84.70
2019-04-25T21:45:25.238Z,85.20
2019-04-25T21:47:55.894Z,85.60
2019-04-25T21:50:27.761Z,86.00
2019-04-25T21:52:59.137Z,86.40
2019-04-25T21:55:29.890Z,87.50
2019-04-25T21:58:01.149Z,87.60
2019-04-25T22:01:00.827Z,87.60
2019-04-25T22:03:33.386Z,87.80
2019-04-25T22:06:05.128Z,88.10
2019-04-25T22:08:37.228Z,88.70
2019-04-25T22:11:08.062Z,88.50
2019-04-25T22:13:39.186Z,89.30
2019-04-25T22:16:10.343Z,89.80
2019-04-25T22:18:41.694Z,90.10
2019-04-25T22:21:12.729Z,90.20
2019-04-25T22:23:43.781Z,90.40
2019-04-25T22:26:14.381Z,90.50
2019-04-25T22:28:45.398Z,90.80
2019-04-25T22:31:24.971Z,90.70
2019-04-25T22:34:08.942Z,91.00
2019-04-25T22:36:39.816Z,91.10
2019-04-25T22:39:14.267Z,91.20
2019-04-25T22:41:47.435Z,91.40
2019-04-25T22:44:21.371Z,91.40
2019-04-25T22:46:52.563Z,91.60
2019-04-25T22:49:23.187Z,91.70
2019-04-25T22:51:53.709Z,91.90
2019-04-25T22:54:25.875Z,92.00
2019-04-25T22:56:56.577Z,92.10
2019-04-25T22:59:27.653Z,92.30
2019-04-25T23:02:17.590Z,92.40
2019-04-25T23:05:15.040Z,92.70
2019-04-25T23:07:43.130Z,92.80
2019-04-25T23:10:14.515Z,92.90
2019-04-25T23:12:45.175Z,93.10
2019-04-25T23:15:15.830Z,93.50
2019-04-25T23:17:46.630Z,93.50
2019-04-25T23:20:17.430Z,93.60
2019-04-25T23:22:48.406Z,93.70
2019-04-25T23:25:22.680Z,93.80
2019-04-25T23:28:06.149Z,93.60
2019-04-25T23:30:56.434Z,93.60
2019-04-25T23:33:27.047Z,93.50
2019-04-25T23:35:57.840Z,93.80
2019-04-25T23:38:28.596Z,94.00
2019-04-25T23:40:59.340Z,94.20
2019-04-25T23:43:30.582Z,94.20
2019-04-25T23:46:01.078Z,94.50
2019-04-25T23:48:32.047Z,94.70
2019-04-25T23:51:02.697Z,95.00
2019-04-25T23:53:33.763Z,94.90
2019-04-25T23:56:04.520Z,94.80
2019-04-25T23:58:35.145Z,94.70
